Time;durP1;ratioP1;P1;durP2;ratioP2;P2;SDS_P1;SDS_P2;PMS_P1;PMS_P2;Temp;Humidity;BMP_temperature;BMP_pressure;BME280_temperature;BME280_humidity;BME280_pressure;Samples;Min_cycle;Max_cycle;Signal;HPM_P1;HPM_P2
2021/07/04 00:12:08;;;;;;;1.63;1.52;;;;;;;17.53;71.45;99807.06;5906846;23;20019;-75
2021/07/04 00:14:45;;;;;;;4.95;2.40;;;;;;;17.51;71.25;99801.03;6013427;23;20085;-75
2021/07/04 00:17:13;;;;;;;3.67;3.30;;;;;;;17.57;71.08;99795.00;6191744;23;20064;-75
2021/07/04 00:19:42;;;;;;;2.13;2.03;;;;;;;17.66;71.10;99808.81;6191843;23;20004;-71
2021/07/04 00:22:08;;;;;;;5.55;3.63;;;;;;;17.63;71.23;99798.41;6195031;23;20376;-73
2021/07/04 00:24:33;;;;;;;6.22;3.17;;;;;;;17.61;71.29;99795.97;6220418;23;20045;-72
2021/07/04 00:26:59;;;;;;;4.85;2.70;;;;;;;17.57;71.44;99797.75;6219206;23;20001;-73
2021/07/04 00:29:24;;;;;;;3.70;3.30;;;;;;;17.51;71.42;99796.31;6189399;23;20080;-73
2021/07/04 00:31:49;;;;;;;4.35;3.95;;;;;;;17.46;71.89;99793.72;6217465;23;20091;-71
2021/07/04 00:34:15;;;;;;;4.40;3.53;;;;;;;17.42;71.92;99792.75;6206784;23;20035;-72
2021/07/04 00:36:40;;;;;;;4.25;3.63;;;;;;;17.45;71.57;99792.13;6190536;23;20012;-73
2021/07/04 00:39:06;;;;;;;3.63;3.38;;;;;;;17.46;71.73;99785.44;6217144;23;20013;-74
2021/07/04 00:41:31;;;;;;;4.72;2.90;;;;;;;17.48;71.93;99785.94;6187461;23;20091;-74
2021/07/04 00:43:57;;;;;;;6.10;4.07;;;;;;;17.47;72.13;99787.06;6220827;23;20071;-76
2021/07/04 00:46:22;;;;;;;3.95;3.47;;;;;;;17.43;72.09;99772.25;6194261;23;20056;-75
2021/07/04 00:48:50;;;;;;;3.47;3.00;;;;;;;17.47;71.97;99772.44;6189070;23;20016;-74
2021/07/04 00:51:16;;;;;;;6.00;3.58;;;;;;;17.44;72.08;99773.91;6194640;23;20008;-75
2021/07/04 00:53:44;;;;;;;6.47;3.35;;;;;;;17.37;72.19;99765.28;6235070;23;20009;-74
2021/07/04 00:56:10;;;;;;;3.13;2.50;;;;;;;17.38;72.70;99772.44;6221869;23;20036;-73
2021/07/04 00:58:35;;;;;;;2.38;2.17;;;;;;;17.32;72.55;99759.91;6221427;23;20009;-73
2021/07/04 01:01:01;;;;;;;3.03;2.72;;;;;;;17.37;72.67;99770.81;6218927;23;20009;-73
2021/07/04 01:03:26;;;;;;;3.53;3.22;;;;;;;17.37;73.09;99762.53;6218075;23;20008;-73
2021/07/04 01:05:51;;;;;;;3.28;2.97;;;;;;;17.35;73.56;99764.81;6213012;23;20396;-74
2021/07/04 01:08:17;;;;;;;2.58;2.40;;;;;;;17.33;73.40;99761.56;6218117;23;20096;-74
2021/07/04 01:10:43;;;;;;;6.63;2.40;;;;;;;17.32;73.60;99759.91;6191822;23;20001;-74
2021/07/04 01:13:09;;;;;;;4.13;2.90;;;;;;;17.33;73.96;99761.56;6218661;23;20313;-73
2021/07/04 01:15:35;;;;;;;6.75;2.28;;;;;;;17.28;74.11;99755.06;6191153;23;20017;-74
2021/07/04 01:18:04;;;;;;;2.60;2.40;;;;;;;17.32;74.02;99759.91;6216864;23;20052;-74
2021/07/04 01:20:30;;;;;;;6.45;2.08;;;;;;;17.32;74.42;99754.41;6185227;23;20004;-75
2021/07/04 01:23:02;;;;;;;2.72;2.53;;;;;;;17.31;74.25;99748.06;6188102;23;20024;-75
2021/07/04 01:25:29;;;;;;;2.60;2.40;;;;;;;17.28;74.70;99746.75;6191971;23;20004;-74
2021/07/04 01:27:55;;;;;;;3.85;2.03;;;;;;;17.31;74.92;99747.25;6159658;23;20011;-74
2021/07/04 01:30:22;;;;;;;1.90;1.73;;;;;;;17.27;74.85;99747.94;6160848;23;20093;-75
2021/07/04 01:32:48;;;;;;;2.60;2.03;;;;;;;17.26;74.96;99737.19;6188118;23;20005;-75
2021/07/04 01:35:14;;;;;;;3.15;1.83;;;;;;;17.24;74.93;99737.53;6158037;23;20305;-73
2021/07/04 01:37:39;;;;;;;2.53;1.45;;;;;;;17.26;74.94;99746.28;6189094;23;20088;-74
2021/07/04 01:40:07;;;;;;;1.70;1.60;;;;;;;17.28;74.95;99737.69;6182048;23;20009;-75
2021/07/04 01:42:32;;;;;;;3.33;2.05;;;;;;;17.25;75.28;99732.81;6188748;23;20009;-75
2021/07/04 01:44:58;;;;;;;3.53;1.92;;;;;;;17.24;75.29;99734.78;6188612;23;20082;-73
2021/07/04 01:47:23;;;;;;;2.13;1.55;;;;;;;17.27;74.87;99736.03;6154745;23;20420;-74
2021/07/04 01:49:49;;;;;;;1.55;1.35;;;;;;;17.29;75.11;99728.25;6161205;23;20336;-74
2021/07/04 01:52:15;;;;;;;1.70;1.60;;;;;;;17.31;75.29;99728.72;6136168;23;20005;-74
2021/07/04 01:54:41;;;;;;;1.42;1.33;;;;;;;17.30;75.23;99729.06;6188938;23;20013;-74
2021/07/04 01:57:12;;;;;;;1.30;1.20;;;;;;;17.27;75.03;99720.28;6160041;23;20314;-72
2021/07/04 01:59:45;;;;;;;3.97;1.00;;;;;;;17.26;75.28;99718.66;6164041;23;20077;-74
2021/07/04 02:02:11;;;;;;;2.08;0.90;;;;;;;17.28;75.21;99707.28;6189510;23;20447;-77
2021/07/04 02:04:38;;;;;;;1.30;1.30;;;;;;;17.26;75.69;99707.59;6143125;23;20016;-76
2021/07/04 02:07:04;;;;;;;1.95;1.25;;;;;;;17.22;75.60;99703.88;6192594;23;20064;-76
2021/07/04 02:09:30;;;;;;;2.78;1.73;;;;;;;17.22;75.54;99701.13;6190715;23;20011;-73
2021/07/04 02:11:55;;;;;;;1.65;1.55;;;;;;;17.22;76.04;99700.31;6158511;23;20005;-73
2021/07/04 02:14:21;;;;;;;1.10;1.10;;;;;;;17.22;75.72;99705.84;6192248;23;20388;-71
2021/07/04 02:16:46;;;;;;;1.10;1.10;;;;;;;17.23;76.05;99702.75;6201815;23;20049;-74
2021/07/04 02:19:12;;;;;;;1.08;1.08;;;;;;;17.23;76.09;99708.28;6171077;23;20020;-73
2021/07/04 02:21:37;;;;;;;2.78;1.30;;;;;;;17.21;76.06;99702.25;6189145;23;20091;-74
2021/07/04 02:24:03;;;;;;;2.72;2.45;;;;;;;17.23;76.03;99719.31;6175013;23;20016;-74
2021/07/04 02:26:28;;;;;;;3.35;1.67;;;;;;;17.20;75.92;99703.41;6218563;23;19996;-74
2021/07/04 02:28:53;;;;;;;1.80;1.10;;;;;;;17.21;76.08;99709.72;6169489;23;20004;-74
2021/07/04 02:31:19;;;;;;;0.88;0.88;;;;;;;17.23;75.94;99705.50;6168509;23;20019;-73
2021/07/04 02:33:44;;;;;;;1.73;1.63;;;;;;;17.19;76.35;99704.53;6218501;23;20008;-74
2021/07/04 02:36:10;;;;;;;1.40;1.40;;;;;;;17.18;76.34;99710.38;6222101;23;20009;-73
2021/07/04 02:38:35;;;;;;;1.55;1.48;;;;;;;17.15;76.63;99706.31;6167935;23;20012;-74
2021/07/04 02:41:00;;;;;;;1.77;1.67;;;;;;;17.14;76.19;99704.69;6190621;23;20550;-74
2021/07/04 02:43:26;;;;;;;3.70;1.90;;;;;;;17.10;76.85;99699.03;6163713;23;20195;-74
2021/07/04 02:45:52;;;;;;;1.92;1.75;;;;;;;17.08;76.81;99701.31;6164458;23;20450;-72
2021/07/04 02:48:18;;;;;;;1.40;1.30;;;;;;;17.06;77.02;99694.50;6217380;23;20008;-72
2021/07/04 02:50:47;;;;;;;5.72;1.30;;;;;;;16.99;77.18;99681.16;6186593;23;20016;-73
2021/07/04 02:53:14;;;;;;;1.38;1.27;;;;;;;16.95;76.91;99684.91;6214375;23;20579;-73
2021/07/04 02:55:39;;;;;;;1.50;1.40;;;;;;;17.02;77.01;99685.22;6216710;23;20016;-73
2021/07/04 02:58:06;;;;;;;1.38;1.30;;;;;;;16.96;77.21;99664.44;6184756;23;20012;-73
2021/07/04 03:00:31;;;;;;;1.20;1.17;;;;;;;16.99;77.19;99669.31;6214948;23;20016;-73
2021/07/04 03:02:57;;;;;;;0.52;0.52;;;;;;;17.07;77.17;99683.13;6191849;23;20008;-73
2021/07/04 03:05:23;;;;;;;0.95;0.95;;;;;;;17.01;76.91;99669.78;6187198;23;20007;-75
2021/07/04 03:07:49;;;;;;;0.55;0.55;;;;;;;17.08;77.09;99670.09;6221129;23;20059;-76
2021/07/04 03:10:20;;;;;;;0.85;0.80;;;;;;;16.98;76.94;99659.41;6192961;23;20001;-79
2021/07/04 03:12:46;;;;;;;0.52;0.52;;;;;;;17.08;76.57;99670.94;6223291;23;20000;-82
2021/07/04 03:15:16;;;;;;;1.15;1.05;;;;;;;17.03;76.84;99659.25;6193408;23;20450;-82
2021/07/04 03:17:41;;;;;;;0.95;0.95;;;;;;;17.04;76.67;99672.72;6223409;23;20079;-81
2021/07/04 03:20:24;;;;;;;2.95;1.10;;;;;;;17.10;76.48;99681.66;6221935;23;20008;-81
2021/07/04 03:22:50;;;;;;;1.50;1.02;;;;;;;16.98;76.93;99678.72;6194658;23;20027;-75
2021/07/04 03:25:17;;;;;;;0.80;0.80;;;;;;;16.85;77.50;99669.47;6193995;23;20005;-75
2021/07/04 03:27:43;;;;;;;0.40;0.40;;;;;;;16.74;78.27;99669.78;6219980;23;20394;-76
2021/07/04 03:30:20;;;;;;;1.30;0.50;;;;;;;16.60;78.77;99658.09;6227414;23;20308;-76
2021/07/04 03:32:47;;;;;;;0.40;0.40;;;;;;;16.51;79.20;99660.88;6226777;23;20001;-76
2021/07/04 03:35:15;;;;;;;0.10;0.10;;;;;;;16.43;79.42;99661.69;6225090;23;20009;-75
2021/07/04 03:37:40;;;;;;;0.70;0.70;;;;;;;16.37;79.78;99655.53;6213479;23;20004;-77
2021/07/04 03:40:08;;;;;;;0.65;0.30;;;;;;;16.17;80.86;99662.47;6219857;23;20044;-75
2021/07/04 03:42:34;;;;;;;0.57;0.38;;;;;;;15.98;81.55;99656.44;6211900;23;20012;-77
2021/07/04 03:44:59;;;;;;;0.28;0.28;;;;;;;15.93;82.07;99662.09;6183387;23;20008;-76
2021/07/04 03:47:25;;;;;;;0.20;0.20;;;;;;;15.83;82.22;99652.19;6216670;23;20305;-77
2021/07/04 03:49:52;;;;;;;0.40;0.20;;;;;;;15.78;82.09;99655.88;6216141;23;20008;-78
2021/07/04 03:52:17;;;;;;;0.32;0.30;;;;;;;15.77;82.45;99659.75;6196353;23;20005;-77
2021/07/04 03:54:43;;;;;;;0.30;0.20;;;;;;;15.74;82.05;99649.38;6171479;23;20016;-78
2021/07/04 03:57:21;;;;;;;0.20;0.10;;;;;;;15.78;82.23;99644.84;6210163;23;20005;-78
2021/07/04 03:59:50;;;;;;;0.60;0.60;;;;;;;15.82;82.31;99650.56;6219862;23;20072;-78
2021/07/04 04:02:22;;;;;;;0.20;0.20;;;;;;;15.86;82.53;99657.88;6214789;23;20004;-76
2021/07/04 04:04:48;;;;;;;0.55;0.13;;;;;;;15.83;82.59;99657.72;6212408;23;20076;-78
2021/07/04 04:07:22;;;;;;;0.30;0.30;;;;;;;15.79;82.46;99646.50;6211689;23;20035;-78
2021/07/04 04:09:51;;;;;;;0.43;0.30;;;;;;;15.80;82.38;99659.16;6158282;23;20009;-77
2021/07/04 04:12:39;;;;;;;0.20;0.20;;;;;;;15.85;82.46;99660.94;6193145;23;20008;-77
2021/07/04 04:15:13;;;;;;;0.20;0.20;;;;;;;15.83;82.17;99658.50;6194720;23;20075;-76
2021/07/04 04:17:45;;;;;;;0.45;0.40;;;;;;;15.81;82.43;99638.72;6212403;23;20015;-75
2021/07/04 04:20:11;;;;;;;0.45;0.40;;;;;;;15.83;82.67;99644.72;6202691;23;20009;-76
2021/07/04 04:22:36;;;;;;;0.95;0.60;;;;;;;15.90;82.58;99648.94;6172529;23;20004;-76
2021/07/04 04:25:04;;;;;;;4.78;1.10;;;;;;;15.92;82.50;99650.25;6210502;23;20015;-74
2021/07/04 04:27:40;;;;;;;0.88;0.50;;;;;;;15.90;82.94;99646.19;6212942;23;20052;-75
2021/07/04 04:30:08;;;;;;;1.00;1.00;;;;;;;15.94;82.71;99652.69;6216638;23;20008;-76
2021/07/04 04:32:46;;;;;;;0.70;0.70;;;;;;;15.95;82.81;99654.31;6216696;23;20020;-76
2021/07/04 04:35:15;;;;;;;0.93;0.93;;;;;;;16.00;82.87;99656.91;6205941;23;20088;-77
2021/07/04 04:37:45;;;;;;;1.00;1.00;;;;;;;16.00;82.97;99652.22;6219138;23;20375;-77
2021/07/04 04:40:11;;;;;;;1.48;0.90;;;;;;;16.09;82.90;99654.19;6168816;23;20140;-76
2021/07/04 04:42:38;;;;;;;0.80;0.80;;;;;;;16.13;82.72;99658.72;6197146;23;20011;-77
2021/07/04 04:45:04;;;;;;;0.70;0.70;;;;;;;16.19;82.52;99659.38;6169209;23;20013;-76
2021/07/04 04:47:30;;;;;;;3.17;2.15;;;;;;;16.13;82.75;99630.34;6194056;23;20035;-76
2021/07/04 04:49:56;;;;;;;6.65;2.38;;;;;;;16.24;82.70;99650.97;6168340;23;20091;-75
2021/07/04 04:52:21;;;;;;;2.10;1.85;;;;;;;16.21;82.65;99635.88;6197351;23;20325;-77
2021/07/04 04:54:46;;;;;;;3.08;2.28;;;;;;;16.30;82.35;99648.88;6221101;23;20416;-77
2021/07/04 04:57:13;;;;;;;2.15;1.95;;;;;;;16.25;82.80;99630.50;6219021;23;20033;-77
2021/07/04 04:59:39;;;;;;;2.13;2.03;;;;;;;16.27;82.63;99632.97;6171088;23;20004;-74
2021/07/04 05:02:08;;;;;;;1.98;1.83;;;;;;;16.34;82.75;99642.38;6193577;23;20060;-76
2021/07/04 05:04:34;;;;;;;1.48;1.38;;;;;;;16.32;82.43;99635.56;6189785;23;20441;-75
2021/07/04 05:06:59;;;;;;;1.55;1.45;;;;;;;16.37;82.39;99644.47;6222548;23;19996;-75
2021/07/04 05:09:25;;;;;;;1.30;1.20;;;;;;;16.36;82.81;99625.50;6193682;23;20064;-74
2021/07/04 05:11:51;;;;;;;1.38;1.23;;;;;;;16.43;82.66;99636.03;6219496;23;20416;-75
2021/07/04 05:14:18;;;;;;;0.93;0.93;;;;;;;16.47;82.74;99637.84;6194565;23;20510;-75
2021/07/04 05:16:43;;;;;;;0.57;0.57;;;;;;;16.51;82.45;99627.75;6221932;23;20012;-76
2021/07/04 05:19:10;;;;;;;1.67;1.20;;;;;;;16.56;82.85;99630.34;6221155;23;20005;-75
2021/07/04 05:21:37;;;;;;;0.70;0.55;;;;;;;16.60;82.82;99624.19;6214482;23;20009;-76
2021/07/04 05:24:03;;;;;;;3.83;0.88;;;;;;;16.68;82.52;99626.13;6202108;23;20012;-75
2021/07/04 05:26:30;;;;;;;0.50;0.50;;;;;;;16.74;82.58;99625.63;6184661;23;20027;-76
2021/07/04 05:28:56;;;;;;;0.68;0.68;;;;;;;16.75;82.34;99615.41;6164882;23;20057;-76
2021/07/04 05:31:22;;;;;;;1.73;1.10;;;;;;;16.78;82.07;99612.00;6183467;23;20064;-77
2021/07/04 05:33:48;;;;;;;1.23;0.80;;;;;;;16.77;81.81;99612.31;6165764;23;20016;-75
2021/07/04 05:36:14;;;;;;;1.48;0.70;;;;;;;16.82;82.11;99609.38;6115157;23;20013;-75
2021/07/04 05:38:42;;;;;;;1.02;0.80;;;;;;;16.83;81.76;99611.00;6188478;23;20017;-75
2021/07/04 05:41:09;;;;;;;1.23;0.75;;;;;;;16.82;82.06;99610.19;6192802;23;20005;-75
2021/07/04 05:43:35;;;;;;;0.65;0.63;;;;;;;16.82;81.84;99606.59;6168334;23;20008;-77
2021/07/04 05:46:01;;;;;;;1.77;1.45;;;;;;;16.81;82.33;99603.03;6186626;23;20301;-77
2021/07/04 05:48:28;;;;;;;0.73;0.73;;;;;;;16.81;82.02;99594.75;6164509;23;20004;-77
2021/07/04 05:50:55;;;;;;;4.75;0.98;;;;;;;16.89;82.30;99599.50;6188252;23;20005;-76
2021/07/04 05:53:20;;;;;;;0.68;0.60;;;;;;;16.95;82.14;99596.53;6192511;23;20033;-76
2021/07/04 05:55:46;;;;;;;0.73;0.73;;;;;;;16.95;82.36;99593.78;6158127;23;20036;-75
2021/07/04 05:58:12;;;;;;;0.52;0.52;;;;;;;16.95;81.98;99596.53;6188790;23;20001;-76
2021/07/04 06:00:38;;;;;;;0.95;0.90;;;;;;;16.96;82.12;99593.44;6168622;23;20004;-78
2021/07/04 06:03:04;;;;;;;1.42;1.33;;;;;;;16.95;81.98;99585.50;6192990;23;20064;-76
2021/07/04 06:05:29;;;;;;;3.42;1.27;;;;;;;16.93;81.73;99583.06;6175704;23;20009;-76
2021/07/04 06:07:55;;;;;;;0.93;0.93;;;;;;;16.93;82.13;99588.59;6194981;23;20020;-77
2021/07/04 06:10:20;;;;;;;1.65;0.95;;;;;;;16.86;81.78;99586.28;6176143;23;20076;-78
2021/07/04 06:12:46;;;;;;;0.80;0.80;;;;;;;16.89;82.30;99582.94;6143527;23;20092;-77
2021/07/04 06:15:13;;;;;;;1.65;1.25;;;;;;;16.87;82.11;99579.66;6172763;23;20005;-76
2021/07/04 06:17:39;;;;;;;1.88;1.10;;;;;;;16.92;81.91;99585.03;6189879;23;20058;-77
2021/07/04 06:20:07;;;;;;;1.45;1.23;;;;;;;16.91;82.08;99580.63;6167748;23;20016;-77
2021/07/04 06:22:33;;;;;;;1.02;0.63;;;;;;;16.94;82.03;99573.66;6166792;23;20040;-77
2021/07/04 06:24:59;;;;;;;0.50;0.50;;;;;;;17.07;82.20;99577.34;6217207;23;20005;-77
2021/07/04 06:27:24;;;;;;;1.58;0.60;;;;;;;17.15;82.37;99579.25;6226909;23;20076;-76
2021/07/04 06:29:49;;;;;;;0.68;0.68;;;;;;;17.23;81.84;99575.66;6202540;23;20396;-77
2021/07/04 06:32:15;;;;;;;1.30;1.10;;;;;;;17.31;81.71;99575.97;6197944;23;20340;-74
2021/07/04 06:34:40;;;;;;;0.50;0.50;;;;;;;17.33;82.04;99574.47;6218406;23;20015;-75
2021/07/04 06:37:06;;;;;;;0.50;0.50;;;;;;;17.42;81.51;99571.66;6223822;23;20024;-79
2021/07/04 06:39:31;;;;;;;1.02;1.00;;;;;;;17.48;81.88;99573.09;6223064;23;20009;-73
2021/07/04 06:41:56;;;;;;;0.60;0.60;;;;;;;17.47;81.21;99577.00;6220225;23;20009;-75
2021/07/04 06:44:24;;;;;;;2.60;0.65;;;;;;;17.41;81.44;99570.06;6188869;23;20445;-77
2021/07/04 06:46:50;;;;;;;1.60;0.80;;;;;;;17.38;81.45;99566.00;6193455;23;20004;-79
2021/07/04 06:49:15;;;;;;;3.97;0.98;;;;;;;17.37;81.65;99563.56;6217841;23;20011;-79
2021/07/04 06:51:41;;;;;;;0.70;0.70;;;;;;;17.41;81.66;99570.06;6197343;23;20031;-76
2021/07/04 06:54:06;;;;;;;0.68;0.68;;;;;;;17.49;81.87;99571.94;6220670;23;20467;-76
2021/07/04 06:56:32;;;;;;;0.65;0.65;;;;;;;17.46;81.60;99561.56;6221906;23;20020;-76
2021/07/04 06:58:57;;;;;;;1.10;0.82;;;;;;;17.58;81.80;99575.50;6222902;23;20012;-77
2021/07/04 07:01:23;;;;;;;0.60;0.60;;;;;;;17.60;81.70;99567.66;6173102;23;20013;-76
2021/07/04 07:03:48;;;;;;;1.08;0.90;;;;;;;17.65;81.23;99579.69;6224980;23;20027;-77
2021/07/04 07:06:14;;;;;;;1.55;1.45;;;;;;;17.65;81.43;99580.47;6235561;23;20005;-76
2021/07/04 07:08:39;;;;;;;1.63;1.25;;;;;;;17.60;80.76;99578.72;6196560;23;20012;-75
2021/07/04 07:11:05;;;;;;;2.15;1.05;;;;;;;17.61;80.60;99579.53;6195914;23;20008;-77
2021/07/04 07:13:30;;;;;;;2.75;1.20;;;;;;;17.58;80.74;99575.50;6170358;23;20008;-75
2021/07/04 07:15:55;;;;;;;4.60;2.08;;;;;;;17.55;80.44;99584.44;6188841;23;20095;-75
2021/07/04 07:18:21;;;;;;;5.85;2.00;;;;;;;17.61;80.26;99574.03;6189849;23;20023;-77
2021/07/04 07:20:47;;;;;;;5.07;1.75;;;;;;;17.72;79.56;99579.97;6215489;23;20432;-77
2021/07/04 07:23:12;;;;;;;1.75;1.65;;;;;;;17.75;79.76;99568.22;6217419;23;20400;-78
2021/07/04 07:25:38;;;;;;;1.77;1.50;;;;;;;17.84;78.50;99582.78;6215200;23;20058;-76
2021/07/04 07:28:04;;;;;;;1.88;1.60;;;;;;;17.99;78.34;99586.16;6219328;23;20039;-76
2021/07/04 07:30:30;;;;;;;2.90;1.33;;;;;;;18.11;78.26;99591.78;6221077;23;20008;-79
2021/07/04 07:32:55;;;;;;;0.85;0.85;;;;;;;18.29;78.20;99590.47;6189992;23;20331;-80
2021/07/04 07:35:23;;;;;;;1.25;1.17;;;;;;;18.51;77.68;99594.03;6194212;23;20478;-80
2021/07/04 07:37:51;;;;;;;1.10;1.00;;;;;;;18.77;76.96;99584.66;6231078;23;20039;-82
2021/07/04 07:40:16;;;;;;;1.15;0.88;;;;;;;19.05;76.49;99595.16;6208208;23;19995;-80
2021/07/04 07:42:42;;;;;;;2.15;1.02;;;;;;;19.18;76.12;99588.47;6193311;23;20427;-79
2021/07/04 07:45:17;;;;;;;0.73;0.73;;;;;;;19.18;74.65;99588.47;6199285;23;20017;-80
2021/07/04 07:47:42;;;;;;;1.15;0.73;;;;;;;19.20;74.34;99583.38;6172828;23;20008;-81
2021/07/04 07:50:08;;;;;;;1.77;0.80;;;;;;;19.19;73.73;99574.28;6226320;23;19996;-80
2021/07/04 07:52:34;;;;;;;5.10;2.22;;;;;;;19.36;72.49;99576.03;6227236;23;20013;-80
2021/07/04 07:54:59;;;;;;;1.10;0.80;;;;;;;19.36;72.01;99564.13;6203154;23;20087;-76
2021/07/04 07:57:27;;;;;;;5.70;0.70;;;;;;;19.33;71.00;99568.41;6193034;23;20428;-77
2021/07/04 07:59:53;;;;;;;0.32;0.30;;;;;;;19.41;70.96;99571.41;6220830;23;20080;-76
2021/07/04 08:02:23;;;;;;;1.75;0.60;;;;;;;19.28;70.25;99565.06;6224212;23;20015;-79
2021/07/04 08:04:53;;;;;;;0.85;0.70;;;;;;;19.16;68.55;99555.56;6194523;23;20013;-77
2021/07/04 08:11:44;;;;;;;;;;;;;;;;;;;;;
2021/07/04 08:17:25;;;;;;;0.50;0.50;;;;;;;19.71;68.79;99578.34;6045075;23;20010;-75
2021/07/04 08:20:00;;;;;;;;;;;;;;;;;;;;;
2021/07/04 08:22:31;;;;;;;0.43;0.35;;;;;;;19.61;67.21;99578.81;6180001;23;20107;-75
2021/07/04 08:24:58;;;;;;;0.40;0.40;;;;;;;19.61;66.75;99556.63;6192941;23;20053;-76
2021/07/04 08:27:52;;;;;;;0.40;0.40;;;;;;;19.77;65.65;99575.31;6165468;23;20020;-76
2021/07/04 08:30:28;;;;;;;;;;;;;;;;;;;;;
2021/07/04 08:32:56;;;;;;;0.43;0.40;;;;;;;19.55;65.56;99552.44;6189078;23;20040;-77
2021/07/04 08:35:30;;;;;;;0.90;0.65;;;;;;;19.50;66.19;99555.47;6193239;23;20012;-79
2021/07/04 08:38:07;;;;;;;0.85;0.68;;;;;;;19.60;66.17;99563.31;6193127;23;20421;-79
2021/07/04 08:43:39;;;;;;;0.80;0.45;;;;;;;19.61;65.02;99550.25;6160685;23;20009;-80
2021/07/04 08:46:09;;;;;;;0.68;0.40;;;;;;;19.93;65.24;99562.38;6165839;23;20004;-79
2021/07/04 08:48:45;;;;;;;1.90;0.40;;;;;;;20.13;64.79;99538.38;6193564;23;20076;-78
2021/07/04 08:51:15;;;;;;;0.88;0.55;;;;;;;20.52;63.84;99551.75;6166189;23;20035;-78
2021/07/04 08:53:43;;;;;;;1.33;0.40;;;;;;;20.62;63.82;99520.69;6167234;23;20132;-76
2021/07/04 08:56:39;;;;;;;0.55;0.35;;;;;;;21.15;63.49;99553.03;6195378;23;20060;-79
2021/07/04 08:59:10;;;;;;;1.33;0.80;;;;;;;21.46;60.70;99541.06;6143908;23;20008;-78
2021/07/04 09:05:02;;;;;;;1.73;0.57;;;;;;;22.17;59.73;99535.50;6153726;23;20012;-80
2021/07/04 09:07:32;;;;;;;1.30;0.43;;;;;;;22.33;58.10;99537.44;6194080;23;20078;-86
2021/07/04 09:13:53;;;;;;;0.77;0.47;;;;;;;22.44;55.28;99528.13;6089260;23;20017;-86
2021/07/04 09:17:33;;;;;;;;;;;;;;;;;;;;;
2021/07/04 09:20:38;;;;;;;0.50;0.40;;;;;;;22.02;54.88;99523.28;6124025;23;20034;-81
2021/07/04 09:24:15;;;;;;;;;;;;;;;;;;;;;
2021/07/04 09:27:41;;;;;;;0.50;0.40;;;;;;;21.94;55.77;99546.56;5907251;24;20025;-80
2021/07/04 09:30:16;;;;;;;0.68;0.43;;;;;;;21.58;57.08;99526.28;5956507;23;20017;-78
2021/07/04 09:33:00;;;;;;;1.00;0.30;;;;;;;21.41;56.86;99538.59;6058521;23;20015;-82
2021/07/04 09:35:35;;;;;;;1.05;0.57;;;;;;;21.16;57.83;99522.09;6184544;23;20009;-83
2021/07/04 09:38:40;;;;;;;0.55;0.50;;;;;;;21.34;57.99;99533.66;6192047;23;20009;-84
2021/07/04 09:41:25;;;;;;;0.38;0.30;;;;;;;21.48;58.13;99526.81;6165660;23;20012;-83
2021/07/04 09:47:31;;;;;;;0.30;0.30;;;;;;;21.47;58.06;99514.09;6180243;23;20001;-77
2021/07/04 09:50:33;;;;;;;0.20;0.20;;;;;;;22.02;58.52;99506.59;6133877;23;20032;-77
2021/07/04 09:53:21;;;;;;;0.73;0.40;;;;;;;22.14;56.67;99486.13;6151319;23;20012;-79
2021/07/04 09:55:51;;;;;;;1.23;0.30;;;;;;;22.28;56.08;99514.28;6152497;23;20005;-77
2021/07/04 09:58:20;;;;;;;4.85;0.40;;;;;;;22.27;55.25;99507.09;6182230;23;20009;-76
2021/07/04 10:00:46;;;;;;;0.82;0.32;;;;;;;22.24;55.83;99509.78;6157066;23;20103;-77
2021/07/04 10:03:36;;;;;;;0.73;0.40;;;;;;;22.27;55.24;99506.28;6158766;23;20032;-81
2021/07/04 10:06:45;;;;;;;0.77;0.50;;;;;;;22.41;54.44;99494.63;6198022;23;20011;-77
2021/07/04 10:09:33;;;;;;;0.80;0.50;;;;;;;22.56;54.35;99506.84;6163136;23;20088;-75
2021/07/04 10:12:06;;;;;;;0.45;0.40;;;;;;;22.54;54.35;99493.28;6220535;23;20005;-82
2021/07/04 10:14:56;;;;;;;1.67;0.63;;;;;;;22.60;54.05;99496.56;6220123;23;20024;-80
2021/07/04 10:17:33;;;;;;;0.57;0.40;;;;;;;22.60;54.81;99491.78;6216589;23;20036;-77
2021/07/04 10:20:01;;;;;;;0.30;0.30;;;;;;;22.45;54.49;99490.72;6218588;23;20000;-75
2021/07/04 10:22:35;;;;;;;1.50;0.60;;;;;;;22.31;53.74;99491.25;6220047;23;20010;-76
2021/07/04 10:25:09;;;;;;;0.40;0.40;;;;;;;22.22;54.19;99503.78;6217515;23;20009;-75
2021/07/04 10:27:41;;;;;;;0.70;0.45;;;;;;;22.12;54.35;99480.13;6215344;23;20424;-77
2021/07/04 10:30:10;;;;;;;8.18;1.38;;;;;;;22.20;54.47;99495.78;6220918;23;20046;-78
2021/07/04 10:32:37;;;;;;;1.27;0.47;;;;;;;22.06;54.50;99490.72;6186955;23;20071;-77
2021/07/04 10:35:11;;;;;;;2.63;0.68;;;;;;;21.77;55.32;99484.59;6218859;23;20000;-81
2021/07/04 10:37:39;;;;;;;0.70;0.55;;;;;;;21.62;56.36;99499.34;6191659;23;20004;-78
2021/07/04 10:40:10;;;;;;;0.60;0.60;;;;;;;21.48;55.95;99499.00;6193465;23;20013;-78
2021/07/04 10:42:37;;;;;;;0.68;0.50;;;;;;;21.31;56.60;99472.41;6187927;23;20004;-79
2021/07/04 10:45:03;;;;;;;0.60;0.40;;;;;;;21.31;56.46;99478.75;6191046;23;20095;-77
2021/07/04 10:47:33;;;;;;;1.67;0.52;;;;;;;21.29;56.79;99475.53;6216803;23;20004;-77
2021/07/04 10:50:13;;;;;;;0.90;0.70;;;;;;;21.27;56.84;99472.31;6222308;23;20015;-77
2021/07/04 10:52:43;;;;;;;1.90;0.40;;;;;;;21.20;57.47;99472.97;6212463;23;20418;-77
2021/07/04 10:55:12;;;;;;;0.60;0.40;;;;;;;21.36;57.92;99467.38;6186571;23;20008;-79
2021/07/04 10:57:49;;;;;;;0.40;0.40;;;;;;;21.93;57.92;99461.44;6189833;23;20027;-76
2021/07/04 11:00:37;;;;;;;0.63;0.57;;;;;;;22.68;56.55;99470.47;6212675;23;20004;-75
2021/07/04 11:03:25;;;;;;;2.97;0.50;;;;;;;23.38;54.28;99473.19;6210766;23;20071;-74
2021/07/04 11:05:56;;;;;;;0.47;0.47;;;;;;;23.41;52.39;99450.94;6216473;23;19996;-78
2021/07/04 11:08:30;;;;;;;0.60;0.60;;;;;;;23.37;52.03;99466.81;6216244;23;20024;-76
2021/07/04 11:11:14;;;;;;;1.90;0.80;;;;;;;23.38;51.46;99459.22;6217504;23;20004;-76
2021/07/04 11:13:48;;;;;;;0.65;0.65;;;;;;;23.37;52.12;99438.91;6190185;23;20020;-80
2021/07/04 11:16:25;;;;;;;0.45;0.45;;;;;;;23.69;52.00;99452.50;6219035;23;20007;-77
2021/07/04 11:18:56;;;;;;;1.42;0.90;;;;;;;23.71;51.22;99458.50;6193709;23;20070;-78
2021/07/04 11:21:58;;;;;;;0.55;0.52;;;;;;;23.44;51.07;99452.97;6194718;23;20070;-78
2021/07/04 11:24:29;;;;;;;0.65;0.60;;;;;;;23.26;51.73;99430.41;6188952;23;20028;-79
2021/07/04 11:27:21;;;;;;;0.77;0.52;;;;;;;23.30;52.05;99445.19;6191941;23;20001;-78
2021/07/04 11:30:18;;;;;;;0.40;0.30;;;;;;;23.39;52.39;99441.31;6219305;23;20004;-78
2021/07/04 11:32:47;;;;;;;0.88;0.88;;;;;;;23.33;51.39;99452.00;6220816;23;20003;-78
2021/07/04 11:35:13;;;;;;;0.45;0.45;;;;;;;22.91;51.26;99430.59;6189593;23;20012;-79
2021/07/04 11:47:06;;;;;;;0.90;0.52;;;;;;;22.83;53.97;99433.28;6125558;23;20062;-78
2021/07/04 11:49:31;;;;;;;0.60;0.50;;;;;;;22.76;53.36;99433.16;6135315;23;20021;-79
2021/07/04 11:52:07;;;;;;;0.52;0.30;;;;;;;22.69;53.31;99433.03;6218348;23;20008;-77
2021/07/04 11:54:34;;;;;;;1.45;0.63;;;;;;;22.46;53.69;99441.41;6224488;23;20060;-77
2021/07/04 12:00:07;;;;;;;0.70;0.38;;;;;;;20.93;60.69;99438.56;6237599;23;20019;-77
2021/07/04 12:02:42;;;;;;;0.70;0.50;;;;;;;20.01;65.37;99441.31;6222302;23;20036;-77
2021/07/04 12:05:14;;;;;;;;;;;;;;;19.59;66.80;99434.13;6196964;23;20087;-76
2021/07/04 12:07:39;;;;;;;0.90;0.63;;;;;;;19.12;69.59;99429.16;6196701;23;19987;-76
2021/07/04 12:10:15;;;;;;;;;;;;;;;;;;;;;
2021/07/04 12:12:46;;;;;;;0.77;0.55;;;;;;;18.77;71.34;99429.59;6197462;23;20113;-77
2021/07/04 12:15:13;;;;;;;0.80;0.45;;;;;;;18.60;71.33;99414.00;6193145;23;20083;-78
2021/07/04 12:17:44;;;;;;;0.90;0.40;;;;;;;18.44;71.81;99420.22;6196404;23;20039;-77
2021/07/04 12:20:13;;;;;;;2.25;0.40;;;;;;;18.16;73.75;99411.72;6229956;23;20443;-77
2021/07/04 12:23:06;;;;;;;0.43;0.35;;;;;;;18.05;75.30;99405.81;6201955;23;20016;-77
2021/07/04 12:25:42;;;;;;;0.70;0.30;;;;;;;18.21;77.31;99413.47;6224734;23;20016;-75
2021/07/04 12:28:14;;;;;;;0.10;0.10;;;;;;;18.45;77.18;99407.19;6216919;23;20110;-74
2021/07/04 12:30:56;;;;;;;0.30;0.30;;;;;;;18.88;76.00;99403.09;6223156;23;20028;-78
2021/07/04 12:34:04;;;;;;;0.30;0.30;;;;;;;19.50;74.60;99405.75;6192872;23;20005;-79
2021/07/04 12:36:35;;;;;;;0.70;0.13;;;;;;;19.93;73.77;99379.28;6187042;23;20009;-76
2021/07/04 12:40:02;;;;;;;0.63;0.20;;;;;;;20.75;71.58;99380.59;6231480;23;20010;-78
2021/07/04 12:46:40;;;;;;;;;;;;;;;;;;;;;